Onweer van: 18-10-2019 10:00 tot: 13:00 waarschuwing voor: Onweer niveau: Geel info button
Enkele onweersbuien met kans op windstoten van 60-70 km/uur, langs de kust rond 80 km/uur, en mogelijk ook hagel.Kans op blikseminslag, hagel en windstoten.Verkeer en buitenactiviteiten kunnen hinder ondervinden.Mijd open water en open gebied, schuil niet onder bomen.Volg weerberichten en waarschuwingen.


waarschuwing voor Onweer Meer informatie blitzortung!



METAR rapporten vliegvelden

   
EBAW - Antwerp
Gewijzigd: 18-10-2019 00:50
Light Showers, Regen, Helder  
Light Showers, Regen, Helder  
   Wind: Zuiden 11.1 km/h
Wind: Zuiden 11.1 km/h
Temperatuur: 13°C
Dauwpunt: 12°C
Vochtigheid: 94%
Barometer: 1007 hPa
Bewolking: Helder
Zicht: meer dan 10 km
Bewolking: Helder
EBAW 172250Z AUTO 17006KT 9999 -SHRA NCD 13/12 Q1007
EBLG - Li├Ęge
Gewijzigd: 18-10-2019 00:50
Helder  
Helder  
   Wind: Zuiden 18.5 km/h
Wind: Zuiden 18.5 km/h
Temperatuur: 12°C
Dauwpunt: 11°C
Vochtigheid: 94%
Barometer: 1009 hPa
Zicht: meer dan 10 km
Bewolking: Helder
EBLG 172250Z 18010KT CAVOK 12/11 Q1009 NOSIG
EBCV - Mons/Bergen
Gewijzigd: 18-10-2019 00:55
Grotendeels bewolkt  
Grotendeels bewolkt  
   Wind: Zuiden 14.8 km/h
Wind: Zuiden 14.8 km/h
Temperatuur: 13°C
Dauwpunt: 12°C
Vochtigheid: 94%
Barometer: 1007 hPa
Bewolking: Grotendeels bewolkt
Zicht: meer dan 10 km
Bewolking: Grotendeels bewolkt 6600 ft
EBCV 172255Z AUTO 19008KT 9999 BKN066/// 13/12 Q1007 BLU
EHBK - Maastricht
Gewijzigd: 18-10-2019 00:55
Gedeeltelijk bewolkt  
Gedeeltelijk bewolkt  
   Wind: Zuiden 16.7 km/h
Wind: Zuiden 16.7 km/h
Temperatuur: 13°C
Dauwpunt: 11°C
Vochtigheid: 88%
Barometer: 1009 hPa
Bewolking: Gedeeltelijk bewolkt
Zicht: meer dan 10 km
Bewolking: Gedeeltelijk bewolkt
EHBK 172255Z AUTO 18009KT 9999 NSC 13/11 Q1009
ELLX - Luxemburg
Gewijzigd: 18-10-2019 00:50
Grotendeels bewolkt  
Grotendeels bewolkt  
   Wind: Zuiden 11.1 km/h
Wind: Zuiden 11.1 km/h
Temperatuur: 12°C
Dauwpunt: 12°C
Vochtigheid: 100%
Barometer: 1012 hPa
Bewolking: Grotendeels bewolkt
Zicht: meer dan 10 km
Bewolking: Licht bewolkt 200 ft,
Gedeeltelijk bewolkt 300 ft,
Grotendeels bewolkt 500 ft
ELLX 172250Z 17006KT 9999 FEW002 SCT003 BKN005 12/12 Q1012 NOSIG
EBOS - Oostende
Gewijzigd: 18-10-2019 00:50
Helder  
Helder  
   Wind: Zuiden 13 km/h
Wind: Zuiden 13 km/h
Temperatuur: 12°C
Dauwpunt: 11°C
Vochtigheid: 94%
Barometer: 1006 hPa
Zicht: meer dan 10 km
Bewolking: Helder
EBOS 172250Z 18007KT CAVOK 12/11 Q1006 NOSIG

Script ontwikkeld door  Saratoga-weather.org Aangepast voor de template door  Weerstation Leuven